createdAt,value
2023-05-09T00:01:58.472Z,19.13
2023-05-09T00:04:26.491Z,19.15
2023-05-09T00:06:54.727Z,19.11
2023-05-09T00:09:24.021Z,19.12
2023-05-09T00:11:51.910Z,19.14
2023-05-09T00:14:19.750Z,19.18
2023-05-09T00:16:47.672Z,19.20
2023-05-09T00:19:16.035Z,19.20
2023-05-09T00:21:43.864Z,19.15
2023-05-09T00:24:11.749Z,19.13
2023-05-09T00:26:40.973Z,19.15
2023-05-09T00:29:08.980Z,19.17
2023-05-09T00:31:36.795Z,19.14
2023-05-09T00:34:04.746Z,19.13
2023-05-09T00:36:33.098Z,19.12
2023-05-09T00:39:00.826Z,19.17
2023-05-09T00:41:28.612Z,19.12
2023-05-09T00:43:57.833Z,19.12
2023-05-09T00:46:26.398Z,19.12
2023-05-09T00:48:54.284Z,19.11
2023-05-09T00:51:22.948Z,19.04
2023-05-09T00:53:50.928Z,19.04
2023-05-09T00:56:18.888Z,19.04
2023-05-09T00:58:47.064Z,19.06
2023-05-09T01:01:17.281Z,19.09
2023-05-09T01:03:47.483Z,19.06
2023-05-09T01:06:24.168Z,19.06
2023-05-09T01:09:00.325Z,19.09
2023-05-09T01:11:33.564Z,19.12
2023-05-09T01:14:13.305Z,19.12
2023-05-09T01:16:48.361Z,19.09
2023-05-09T01:19:47.062Z,19.10
2023-05-09T01:22:17.406Z,19.07
2023-05-09T01:25:07.212Z,19.07
2023-05-09T01:27:45.540Z,19.03
2023-05-09T01:30:17.081Z,19.02
2023-05-09T01:32:50.523Z,19.03
2023-05-09T01:35:19.740Z,19.04
2023-05-09T01:37:52.012Z,18.98
2023-05-09T01:40:22.412Z,19.00
2023-05-09T01:42:53.887Z,18.94
2023-05-09T01:45:24.853Z,18.99
2023-05-09T01:47:54.659Z,19.01
2023-05-09T01:50:24.202Z,19.02
2023-05-09T01:52:56.507Z,19.04
2023-05-09T01:55:27.766Z,19.04
2023-05-09T01:57:57.655Z,19.09
2023-05-09T02:00:28.154Z,19.11
2023-05-09T02:02:58.788Z,19.11
2023-05-09T02:05:30.631Z,19.08
2023-05-09T02:07:59.507Z,19.10
2023-05-09T02:10:29.316Z,19.07
2023-05-09T02:12:57.757Z,19.08
2023-05-09T02:15:27.618Z,19.06
2023-05-09T02:17:55.583Z,19.03
2023-05-09T02:20:23.627Z,19.02
2023-05-09T02:22:52.042Z,19.04
2023-05-09T02:25:21.801Z,19.03
2023-05-09T02:27:49.852Z,19.06
2023-05-09T02:30:23.454Z,19.08
2023-05-09T02:32:58.562Z,19.03
2023-05-09T02:35:28.182Z,19.01
2023-05-09T02:37:59.834Z,18.98
2023-05-09T02:40:31.101Z,18.98
2023-05-09T02:42:58.969Z,18.96
2023-05-09T02:45:27.094Z,18.98
2023-05-09T02:47:56.582Z,18.92
2023-05-09T02:50:25.020Z,18.93
2023-05-09T02:52:52.874Z,18.95
2023-05-09T02:55:20.838Z,18.98
2023-05-09T02:57:52.012Z,18.94
2023-05-09T03:00:29.117Z,18.97
2023-05-09T03:02:58.480Z,18.97
2023-05-09T03:05:26.372Z,18.97
2023-05-09T03:07:54.260Z,18.94
2023-05-09T03:10:22.220Z,18.97
2023-05-09T03:12:49.973Z,18.95
2023-05-09T03:15:17.831Z,18.96
2023-05-09T03:17:47.851Z,18.97
2023-05-09T03:20:17.276Z,18.96
2023-05-09T03:22:45.411Z,19.01
2023-05-09T03:25:14.075Z,19.00
2023-05-09T03:27:42.752Z,19.00
2023-05-09T03:30:15.960Z,19.01
2023-05-09T03:32:46.057Z,19.06
2023-05-09T03:35:14.739Z,19.01
2023-05-09T03:37:44.382Z,18.98
2023-05-09T03:40:13.274Z,18.95
2023-05-09T03:42:48.195Z,18.93
2023-05-09T03:45:17.006Z,18.93
2023-05-09T03:47:47.375Z,18.91
2023-05-09T03:50:16.150Z,18.92
2023-05-09T03:52:46.933Z,18.93
2023-05-09T03:55:18.496Z,18.97
2023-05-09T03:57:46.342Z,18.95
2023-05-09T04:00:14.918Z,18.96
2023-05-09T04:02:47.568Z,18.98
2023-05-09T04:05:24.326Z,18.95
2023-05-09T04:07:54.542Z,18.94
2023-05-09T04:10:22.826Z,18.94
2023-05-09T04:12:50.954Z,18.95
2023-05-09T04:15:19.263Z,18.99
2023-05-09T04:17:47.633Z,18.96
2023-05-09T04:20:18.102Z,18.98
2023-05-09T04:22:47.033Z,19.01
2023-05-09T04:25:20.134Z,18.98
2023-05-09T04:27:48.995Z,18.92
2023-05-09T04:30:17.675Z,18.91
2023-05-09T04:32:47.208Z,18.88
2023-05-09T04:35:17.497Z,18.84
2023-05-09T04:37:48.976Z,19.00
2023-05-09T04:40:19.310Z,18.82
2023-05-09T04:42:54.624Z,18.79
2023-05-09T04:45:26.370Z,18.74
2023-05-09T04:47:54.300Z,18.73
2023-05-09T04:50:22.456Z,18.71
2023-05-09T04:52:50.204Z,18.63
2023-05-09T04:55:19.952Z,18.68
2023-05-09T04:57:49.720Z,18.59
2023-05-09T05:00:18.606Z,18.42
2023-05-09T05:02:48.391Z,18.46
2023-05-09T05:05:16.714Z,18.48
2023-05-09T05:07:45.030Z,18.48
2023-05-09T05:10:19.926Z,18.45
2023-05-09T05:12:51.874Z,18.48
2023-05-09T05:15:20.632Z,18.36
2023-05-09T05:17:49.557Z,18.42
2023-05-09T05:20:21.360Z,18.36
2023-05-09T05:22:50.399Z,18.22
2023-05-09T05:25:21.072Z,18.03
2023-05-09T05:27:50.787Z,18.03
2023-05-09T05:30:18.766Z,18.15
2023-05-09T05:32:47.096Z,18.03
2023-05-09T05:35:18.066Z,17.98
2023-05-09T05:37:47.641Z,18.09
2023-05-09T05:40:17.143Z,18.18
2023-05-09T05:42:49.044Z,18.24
2023-05-09T05:45:17.943Z,18.17
2023-05-09T05:47:50.108Z,18.29
2023-05-09T05:50:18.751Z,18.17
2023-05-09T05:52:47.133Z,18.15
2023-05-09T05:55:17.570Z,18.24
2023-05-09T05:57:47.034Z,18.16
2023-05-09T06:00:18.285Z,18.22
2023-05-09T06:02:55.972Z,18.30
2023-05-09T06:05:29.299Z,18.37
2023-05-09T06:07:57.182Z,18.39
2023-05-09T06:10:25.308Z,18.50
2023-05-09T06:12:53.503Z,18.49
2023-05-09T06:15:22.875Z,18.44
2023-05-09T06:17:52.065Z,18.51
2023-05-09T06:20:21.022Z,18.56
2023-05-09T06:22:49.138Z,18.58
2023-05-09T06:25:17.387Z,18.56
2023-05-09T06:27:46.652Z,18.56
2023-05-09T06:30:25.789Z,18.61
2023-05-09T06:32:57.982Z,18.61
2023-05-09T06:35:25.910Z,18.68
2023-05-09T06:37:53.677Z,18.59
2023-05-09T06:40:21.958Z,18.55
2023-05-09T06:42:49.860Z,18.49
2023-05-09T06:45:18.195Z,18.52
2023-05-09T06:47:46.405Z,18.60
2023-05-09T06:50:16.081Z,18.64
2023-05-09T06:52:43.858Z,18.64
2023-05-09T06:55:12.335Z,18.60
2023-05-09T06:57:40.765Z,18.63
2023-05-09T07:00:10.088Z,18.54
2023-05-09T07:02:41.750Z,18.48
2023-05-09T07:05:10.957Z,18.34
2023-05-09T07:07:40.802Z,18.39
2023-05-09T07:10:11.795Z,18.28
2023-05-09T07:12:40.050Z,18.34
2023-05-09T07:15:09.319Z,18.30
2023-05-09T07:17:37.142Z,18.21
2023-05-09T07:20:07.147Z,18.23
2023-05-09T07:22:37.433Z,18.35
2023-05-09T07:25:09.144Z,18.38
2023-05-09T07:27:37.232Z,18.36
2023-05-09T07:30:05.753Z,18.39
2023-05-09T07:32:34.351Z,18.49
2023-05-09T07:35:03.251Z,18.61
2023-05-09T07:37:31.273Z,18.64
2023-05-09T07:39:59.065Z,18.69
2023-05-09T07:42:28.276Z,18.74
2023-05-09T07:44:56.731Z,18.76
2023-05-09T07:47:24.809Z,18.75
2023-05-09T07:49:52.718Z,18.76
2023-05-09T07:52:20.503Z,18.77
2023-05-09T07:54:48.716Z,18.76
2023-05-09T07:57:17.291Z,18.76
2023-05-09T07:59:46.788Z,18.71
2023-05-09T08:02:14.718Z,18.69
2023-05-09T08:04:42.497Z,18.54
2023-05-09T08:07:11.954Z,18.53
2023-05-09T08:09:39.771Z,18.58
2023-05-09T08:12:08.226Z,18.63
2023-05-09T08:14:36.088Z,18.65
2023-05-09T08:17:05.249Z,18.65
2023-05-09T08:19:33.053Z,18.63
2023-05-09T08:22:01.863Z,18.68
2023-05-09T08:24:29.877Z,18.69
2023-05-09T08:26:57.932Z,18.59
2023-05-09T08:29:25.862Z,18.56
2023-05-09T08:31:53.751Z,18.52
2023-05-09T08:34:22.977Z,18.54
2023-05-09T08:36:50.722Z,18.44
2023-05-09T08:39:19.279Z,18.49
2023-05-09T08:41:47.316Z,18.43
2023-05-09T08:44:15.851Z,18.37
2023-05-09T08:46:48.312Z,18.47
2023-05-09T08:49:17.115Z,18.51
2023-05-09T08:51:48.154Z,18.51
2023-05-09T08:54:17.002Z,18.51
2023-05-09T08:56:44.757Z,18.53
2023-05-09T08:59:13.568Z,18.55
2023-05-09T09:01:42.620Z,18.60
2023-05-09T09:04:12.049Z,18.62
2023-05-09T09:06:41.120Z,18.64
2023-05-09T09:09:10.438Z,18.71
2023-05-09T09:11:39.291Z,18.79
2023-05-09T09:14:13.249Z,18.84
2023-05-09T09:16:42.882Z,18.94
2023-05-09T09:19:14.222Z,18.94
2023-05-09T09:21:43.843Z,18.82
2023-05-09T09:24:14.664Z,18.69
2023-05-09T09:26:48.292Z,18.72
2023-05-09T09:29:18.522Z,18.77
2023-05-09T09:31:47.702Z,18.85
2023-05-09T09:34:23.918Z,18.77
2023-05-09T09:36:52.188Z,18.88
2023-05-09T09:39:22.151Z,18.89
2023-05-09T09:41:50.028Z,19.01
2023-05-09T09:44:19.065Z,18.99
2023-05-09T09:46:48.790Z,18.89
2023-05-09T09:49:18.595Z,18.87
2023-05-09T09:51:47.021Z,19.02
2023-05-09T09:54:16.319Z,18.92
2023-05-09T09:56:46.809Z,18.99
2023-05-09T09:59:16.696Z,19.08
2023-05-09T10:02:07.013Z,19.07
2023-05-09T10:04:38.038Z,18.94
2023-05-09T10:07:07.484Z,18.97
2023-05-09T10:09:38.019Z,18.97
2023-05-09T10:12:08.983Z,18.92
2023-05-09T10:14:39.238Z,18.89
2023-05-09T10:17:07.113Z,18.92
2023-05-09T10:19:36.964Z,19.00
2023-05-09T10:22:10.060Z,19.06
2023-05-09T10:24:43.228Z,18.98
2023-05-09T10:27:13.744Z,19.02
2023-05-09T10:29:46.653Z,18.97
2023-05-09T10:32:20.564Z,19.08
2023-05-09T10:34:52.593Z,19.07
2023-05-09T10:37:22.389Z,19.11
2023-05-09T10:39:53.552Z,19.08
2023-05-09T10:42:25.241Z,19.25
2023-05-09T10:44:54.407Z,19.17
2023-05-09T10:47:23.283Z,19.28
2023-05-09T10:49:51.258Z,19.12
2023-05-09T10:52:19.023Z,19.29
2023-05-09T10:54:59.452Z,19.41
2023-05-09T10:57:29.601Z,19.28
2023-05-09T10:59:58.830Z,19.41
2023-05-09T11:02:29.594Z,19.41
2023-05-09T11:05:17.638Z,19.41
2023-05-09T11:07:46.080Z,19.49
2023-05-09T11:10:16.952Z,19.56
2023-05-09T11:13:00.019Z,19.45
2023-05-09T11:15:28.553Z,19.34
2023-05-09T11:18:08.042Z,19.41
2023-05-09T11:20:36.911Z,19.25
2023-05-09T11:23:05.872Z,19.39
2023-05-09T11:25:33.816Z,19.14
2023-05-09T11:28:03.392Z,19.21
2023-05-09T11:30:40.645Z,19.35
2023-05-09T11:33:22.964Z,19.44
2023-05-09T11:36:17.422Z,19.55
2023-05-09T11:38:45.981Z,19.49
2023-05-09T11:41:14.766Z,19.59
2023-05-09T11:43:45.772Z,19.54
2023-05-09T11:46:13.782Z,19.51
2023-05-09T11:48:42.592Z,19.66
2023-05-09T11:51:18.063Z,19.78
2023-05-09T11:53:47.127Z,19.83
2023-05-09T11:56:15.705Z,19.79
2023-05-09T11:58:46.787Z,19.80
2023-05-09T12:01:14.875Z,19.77
2023-05-09T12:03:46.597Z,19.79
2023-05-09T12:06:18.576Z,19.96
2023-05-09T12:08:47.494Z,20.01
2023-05-09T12:11:16.055Z,19.94
2023-05-09T12:13:50.046Z,19.82
2023-05-09T12:16:18.800Z,19.85
2023-05-09T12:18:48.349Z,19.87
2023-05-09T12:21:16.818Z,19.85
2023-05-09T12:23:45.299Z,20.02
2023-05-09T12:26:13.465Z,20.00
2023-05-09T12:28:42.346Z,20.14
2023-05-09T12:31:12.400Z,20.17
2023-05-09T12:33:40.605Z,20.20
2023-05-09T12:36:11.026Z,20.27
2023-05-09T12:38:39.111Z,20.21
2023-05-09T12:41:15.369Z,20.19
2023-05-09T12:43:49.453Z,20.23
2023-05-09T12:46:21.387Z,20.22
2023-05-09T12:48:49.688Z,19.98
2023-05-09T12:51:20.131Z,20.22
2023-05-09T12:53:47.937Z,20.21
2023-05-09T12:56:18.443Z,20.30
2023-05-09T12:58:52.672Z,20.29
2023-05-09T13:01:23.764Z,20.28
2023-05-09T13:04:02.390Z,20.37
2023-05-09T13:06:30.767Z,20.30
2023-05-09T13:09:01.181Z,20.31
2023-05-09T13:11:29.417Z,20.50
2023-05-09T13:13:57.604Z,20.43
2023-05-09T13:16:26.961Z,20.29
2023-05-09T13:18:55.058Z,20.33
2023-05-09T13:21:23.165Z,20.45
2023-05-09T13:23:52.075Z,20.42
2023-05-09T13:26:19.978Z,20.37
2023-05-09T13:28:47.881Z,20.22
2023-05-09T13:31:15.708Z,20.23
2023-05-09T13:33:45.198Z,20.17
2023-05-09T13:36:13.013Z,20.29
2023-05-09T13:38:42.057Z,20.27
2023-05-09T13:41:10.411Z,20.22
2023-05-09T13:43:42.497Z,20.13
2023-05-09T13:46:10.295Z,20.21
2023-05-09T13:48:38.318Z,19.91
2023-05-09T13:51:07.905Z,19.87
2023-05-09T13:53:38.086Z,19.64
2023-05-09T13:56:09.311Z,19.33
2023-05-09T13:58:37.478Z,19.21
2023-05-09T14:01:05.524Z,19.24
2023-05-09T14:03:33.348Z,19.26
2023-05-09T14:06:01.309Z,19.32
2023-05-09T14:08:30.694Z,19.40
2023-05-09T14:10:58.610Z,19.31
2023-05-09T14:13:26.487Z,19.15
2023-05-09T14:15:54.446Z,19.11
2023-05-09T14:18:22.290Z,19.15
2023-05-09T14:20:50.368Z,19.19
2023-05-09T14:23:18.294Z,19.18
2023-05-09T14:25:47.554Z,19.15
2023-05-09T14:28:15.677Z,19.17
2023-05-09T14:30:43.790Z,19.03
2023-05-09T14:33:11.606Z,18.82
2023-05-09T14:35:41.403Z,18.88
2023-05-09T14:38:09.566Z,18.85
2023-05-09T14:40:37.592Z,18.78
2023-05-09T14:43:06.859Z,18.90
2023-05-09T14:45:34.908Z,18.83
2023-05-09T14:48:03.921Z,18.85
2023-05-09T14:50:32.060Z,18.82
2023-05-09T14:53:01.020Z,18.93
2023-05-09T14:55:31.106Z,19.01
2023-05-09T14:57:59.103Z,18.98
2023-05-09T15:00:29.087Z,19.00
2023-05-09T15:02:57.661Z,18.87
2023-05-09T15:05:25.856Z,19.00
2023-05-09T15:07:53.724Z,19.10
2023-05-09T15:10:21.837Z,19.13
2023-05-09T15:12:49.853Z,19.00
2023-05-09T15:15:19.212Z,19.12
2023-05-09T15:17:48.511Z,19.17
2023-05-09T15:20:17.617Z,19.18
2023-05-09T15:22:46.123Z,19.23
2023-05-09T15:25:14.548Z,19.32
2023-05-09T15:27:42.485Z,19.08
2023-05-09T15:30:12.595Z,18.96
2023-05-09T15:32:41.272Z,18.92
2023-05-09T15:35:11.322Z,18.90
2023-05-09T15:37:39.354Z,18.99
2023-05-09T15:40:08.696Z,18.72
2023-05-09T15:42:36.958Z,18.80
2023-05-09T15:45:06.733Z,18.75
2023-05-09T15:47:34.653Z,18.69
2023-05-09T15:50:02.731Z,18.58
2023-05-09T15:52:32.004Z,18.66
2023-05-09T15:54:59.946Z,18.77
2023-05-09T15:57:27.859Z,18.73
2023-05-09T15:59:56.028Z,18.73
2023-05-09T16:02:24.278Z,18.58
2023-05-09T16:04:52.215Z,18.47
2023-05-09T16:07:20.759Z,18.44
2023-05-09T16:09:50.296Z,18.53
2023-05-09T16:12:18.242Z,18.61
2023-05-09T16:14:45.990Z,18.52
2023-05-09T16:17:13.692Z,18.43
2023-05-09T16:19:42.483Z,18.40
2023-05-09T16:22:10.346Z,18.43
2023-05-09T16:24:38.388Z,18.45
2023-05-09T16:27:07.683Z,18.47
2023-05-09T16:29:35.576Z,18.61
2023-05-09T16:32:04.356Z,18.63
2023-05-09T16:34:32.377Z,18.62
2023-05-09T16:37:00.478Z,18.72
2023-05-09T16:39:28.561Z,18.70
2023-05-09T16:41:56.907Z,18.74
2023-05-09T16:44:26.967Z,18.70
2023-05-09T16:46:54.851Z,18.81
2023-05-09T16:49:22.956Z,18.83
2023-05-09T16:51:50.766Z,18.97
2023-05-09T16:54:18.606Z,19.01
2023-05-09T16:56:46.729Z,18.99
2023-05-09T16:59:14.647Z,18.92
2023-05-09T17:01:43.881Z,18.62
2023-05-09T17:04:11.884Z,18.63
2023-05-09T17:06:40.081Z,18.39
2023-05-09T17:09:08.281Z,18.64
2023-05-09T17:11:36.147Z,18.65
2023-05-09T17:14:04.761Z,18.55
2023-05-09T17:16:32.653Z,18.68
2023-05-09T17:19:02.003Z,18.73
2023-05-09T17:21:29.995Z,18.74
2023-05-09T17:23:58.083Z,18.80
2023-05-09T17:26:26.052Z,18.89
2023-05-09T17:28:54.003Z,18.78
2023-05-09T17:31:21.802Z,18.80
2023-05-09T17:33:50.060Z,18.81
2023-05-09T17:36:19.231Z,18.81
2023-05-09T17:38:47.221Z,18.76
2023-05-09T17:41:15.090Z,18.77
2023-05-09T17:43:42.835Z,18.80
2023-05-09T17:46:10.939Z,18.80
2023-05-09T17:48:38.852Z,18.74
2023-05-09T17:51:07.087Z,18.78
2023-05-09T17:53:36.248Z,18.81
2023-05-09T17:56:04.426Z,18.81
2023-05-09T17:58:32.232Z,18.76
2023-05-09T18:01:00.100Z,18.78
2023-05-09T18:03:28.910Z,18.81
2023-05-09T18:05:57.260Z,18.85
2023-05-09T18:08:25.086Z,18.78
2023-05-09T18:10:55.609Z,18.75
2023-05-09T18:13:23.945Z,18.64
2023-05-09T18:15:54.170Z,18.68
2023-05-09T18:18:22.454Z,18.73
2023-05-09T18:20:50.457Z,18.78
2023-05-09T18:23:18.473Z,18.84
2023-05-09T18:25:46.476Z,18.74
2023-05-09T18:28:15.890Z,18.76
2023-05-09T18:30:43.895Z,18.81
2023-05-09T18:33:11.732Z,18.75
2023-05-09T18:35:39.630Z,18.80
2023-05-09T18:38:07.594Z,18.76
2023-05-09T18:40:37.294Z,18.70
2023-05-09T18:43:05.295Z,18.62
2023-05-09T18:45:35.067Z,18.67
2023-05-09T18:48:03.392Z,18.71
2023-05-09T18:50:31.508Z,18.76
2023-05-09T18:52:59.675Z,18.77
2023-05-09T18:55:27.561Z,18.77
2023-05-09T18:57:55.602Z,18.66
2023-05-09T19:00:23.783Z,18.59
2023-05-09T19:02:53.121Z,18.59
2023-05-09T19:05:21.649Z,18.60
2023-05-09T19:07:49.847Z,18.60
2023-05-09T19:10:18.507Z,18.54
2023-05-09T19:12:46.957Z,18.22
2023-05-09T19:15:15.002Z,17.99
2023-05-09T19:17:42.817Z,17.99
2023-05-09T19:20:13.899Z,17.87
2023-05-09T19:22:46.200Z,17.96
2023-05-09T19:25:14.616Z,17.91
2023-05-09T19:27:42.739Z,17.90
2023-05-09T19:30:13.008Z,18.05
2023-05-09T19:32:41.339Z,18.13
2023-05-09T19:35:10.060Z,18.10
2023-05-09T19:37:39.503Z,17.98
2023-05-09T19:40:08.587Z,17.92
2023-05-09T19:42:38.393Z,17.98
2023-05-09T19:45:07.240Z,17.74
2023-05-09T19:47:35.065Z,17.81
2023-05-09T19:50:03.178Z,17.88
2023-05-09T19:52:31.742Z,17.97
2023-05-09T19:55:01.367Z,18.04
2023-05-09T19:57:29.359Z,18.03
2023-05-09T19:59:58.614Z,17.93
2023-05-09T20:02:26.629Z,18.01
2023-05-09T20:04:54.545Z,17.90
2023-05-09T20:07:22.391Z,17.75
2023-05-09T20:09:50.482Z,17.85
2023-05-09T20:12:20.175Z,17.83
2023-05-09T20:14:48.126Z,17.86
2023-05-09T20:17:16.080Z,17.87
2023-05-09T20:19:43.850Z,17.90
2023-05-09T20:22:11.778Z,17.92
2023-05-09T20:24:39.636Z,17.91
2023-05-09T20:27:07.689Z,17.81
2023-05-09T20:29:37.182Z,17.92
2023-05-09T20:32:05.316Z,17.83
2023-05-09T20:34:33.792Z,17.89
2023-05-09T20:37:02.393Z,17.86
2023-05-09T20:39:30.336Z,17.94
2023-05-09T20:42:02.333Z,17.82
2023-05-09T20:44:30.368Z,17.85
2023-05-09T20:46:59.691Z,17.89
2023-05-09T20:49:27.848Z,17.89
2023-05-09T20:51:56.565Z,17.86
2023-05-09T20:54:27.864Z,17.78
2023-05-09T20:56:55.935Z,17.73
2023-05-09T20:59:24.833Z,17.78
2023-05-09T21:01:55.623Z,17.80
2023-05-09T21:04:25.883Z,17.86
2023-05-09T21:06:53.960Z,17.73
2023-05-09T21:09:21.838Z,17.71
2023-05-09T21:11:51.938Z,17.78
2023-05-09T21:14:20.053Z,17.75
2023-05-09T21:16:48.508Z,17.77
2023-05-09T21:19:16.569Z,17.77
2023-05-09T21:21:45.987Z,17.72
2023-05-09T21:24:14.226Z,17.77
2023-05-09T21:26:42.412Z,17.65
2023-05-09T21:29:10.982Z,17.68
2023-05-09T21:31:38.978Z,17.64
2023-05-09T21:34:09.993Z,17.63
2023-05-09T21:36:38.512Z,17.57
2023-05-09T21:39:10.013Z,17.52
2023-05-09T21:41:38.708Z,17.35
2023-05-09T21:44:08.339Z,17.40
2023-05-09T21:46:36.496Z,17.33
2023-05-09T21:49:04.618Z,17.38
2023-05-09T21:51:33.443Z,17.35
2023-05-09T21:54:02.193Z,17.26
2023-05-09T21:56:31.901Z,17.33
2023-05-09T21:58:59.782Z,17.35
2023-05-09T22:01:27.618Z,17.31
2023-05-09T22:03:55.664Z,17.40
2023-05-09T22:06:23.745Z,17.41
2023-05-09T22:08:52.536Z,17.33
2023-05-09T22:11:20.408Z,17.24
2023-05-09T22:13:49.510Z,17.22
2023-05-09T22:16:17.543Z,17.09
2023-05-09T22:18:45.396Z,17.24
2023-05-09T22:21:13.212Z,17.25
2023-05-09T22:23:41.119Z,17.37
2023-05-09T22:26:08.896Z,17.32
2023-05-09T22:28:37.465Z,17.25
2023-05-09T22:31:07.939Z,17.28
2023-05-09T22:33:35.812Z,17.33
2023-05-09T22:36:03.742Z,17.37
2023-05-09T22:38:31.738Z,17.35
2023-05-09T22:40:59.521Z,17.34
2023-05-09T22:43:36.536Z,17.33
2023-05-09T22:46:07.942Z,17.19
2023-05-09T22:48:35.859Z,17.09
2023-05-09T22:51:03.892Z,17.23
2023-05-09T22:53:32.651Z,17.34
2023-05-09T22:56:00.719Z,17.21
2023-05-09T22:58:28.430Z,17.26
2023-05-09T23:00:56.652Z,17.29
2023-05-09T23:03:25.912Z,17.00
2023-05-09T23:05:53.904Z,17.02
2023-05-09T23:08:21.868Z,16.97
2023-05-09T23:10:50.062Z,16.85
2023-05-09T23:13:17.913Z,16.70
2023-05-09T23:15:45.879Z,16.73
2023-05-09T23:18:13.631Z,16.60
2023-05-09T23:20:42.801Z,16.55
2023-05-09T23:23:11.822Z,16.50
2023-05-09T23:25:40.104Z,16.21
2023-05-09T23:28:08.074Z,16.29
2023-05-09T23:30:35.776Z,16.08
2023-05-09T23:33:03.586Z,16.04
2023-05-09T23:35:32.004Z,16.13
2023-05-09T23:38:01.674Z,16.21
2023-05-09T23:40:29.642Z,16.31
2023-05-09T23:42:57.686Z,16.26
2023-05-09T23:45:25.759Z,16.40
2023-05-09T23:47:54.149Z,16.30
2023-05-09T23:50:22.323Z,16.18
2023-05-09T23:52:51.080Z,16.22
2023-05-09T23:55:20.404Z,16.33
2023-05-09T23:57:48.600Z,16.25
